Time;durP1;ratioP1;P1;durP2;ratioP2;P2;SDS_P1;SDS_P2;PMS_P1;PMS_P2;Temp;Humidity;BMP_temperature;BMP_pressure;BME280_temperature;BME280_humidity;BME280_pressure;Samples;Min_cycle;Max_cycle;Signal;HPM_P1;HPM_P2
2023/01/03 00:00:45;;;;;;;15.52;2.72;;;;;;;;;;6126408;23;20271;-77
2023/01/03 00:03:15;;;;;;;24.15;4.07;;;;;;;;;;6126359;23;20045;-77
2023/01/03 00:05:41;;;;;;;18.23;2.90;;;;;;;;;;6126287;23;20002;-76
2023/01/03 00:08:08;;;;;;;14.60;2.47;;;;;;;;;;6126493;23;20488;-76
2023/01/03 00:10:34;;;;;;;16.42;3.42;;;;;;;;;;6126463;23;20002;-76
2023/01/03 00:13:00;;;;;;;16.33;2.70;;;;;;;;;;6126767;23;20006;-77
2023/01/03 00:15:26;;;;;;;16.67;3.78;;;;;;;;;;6126599;23;20029;-76
2023/01/03 00:17:52;;;;;;;14.60;2.72;;;;;;;;;;6126375;23;20006;-77
2023/01/03 00:20:19;;;;;;;15.73;3.03;;;;;;;;;;6126665;23;20081;-77
2023/01/03 00:22:44;;;;;;;;;;;;;;;;;;6126760;23;20318;-76
2023/01/03 00:25:10;;;;;;;11.10;2.85;;;;;;;;;;6126349;23;19912;-77
2023/01/03 00:27:37;;;;;;;15.88;3.33;;;;;;;;;;6126396;23;20002;-76
2023/01/03 00:30:03;;;;;;;21.00;3.78;;;;;;;;;;6126606;23;20053;-76
2023/01/03 00:32:29;;;;;;;17.30;3.20;;;;;;;;;;6126342;23;20002;-77
2023/01/03 00:34:55;;;;;;;17.98;2.38;;;;;;;;;;6126584;23;20002;-76
2023/01/03 00:37:21;;;;;;;16.55;2.45;;;;;;;;;;6126301;23;20435;-77
2023/01/03 00:39:47;;;;;;;13.85;2.42;;;;;;;;;;6126266;23;20006;-76
2023/01/03 00:42:13;;;;;;;;;;;;;;;;;;6126659;23;20442;-77
2023/01/03 00:44:39;;;;;;;14.93;2.88;;;;;;;;;;6126663;23;19901;-76
2023/01/03 00:47:05;;;;;;;;;;;;;;;;;;6126702;23;20433;-76
2023/01/03 00:49:31;;;;;;;12.48;2.90;;;;;;;;;;6126350;23;19955;-76
2023/01/03 00:51:57;;;;;;;10.93;2.33;;;;;;;;;;6126266;23;20071;-76
2023/01/03 00:54:23;;;;;;;16.02;2.90;;;;;;;;;;6126638;23;20009;-77
2023/01/03 00:56:50;;;;;;;13.48;2.60;;;;;;;;;;6124667;23;20389;-76
2023/01/03 00:59:18;;;;;;;17.45;3.20;;;;;;;;;;6125993;23;20437;-76
2023/01/03 01:01:45;;;;;;;19.17;2.70;;;;;;;;;;6126186;23;20341;-75
2023/01/03 01:04:14;;;;;;;19.05;2.97;;;;;;;;;;6125989;23;20006;-76
2023/01/03 01:06:42;;;;;;;20.70;2.67;;;;;;;;;;6126121;23;20061;-77
2023/01/03 01:09:11;;;;;;;17.65;2.42;;;;;;;;;;6126176;23;20025;-76
2023/01/03 01:11:37;;;;;;;20.13;2.97;;;;;;;;;;6126326;23;20009;-76
2023/01/03 01:14:03;;;;;;;;;;;;;;;;;;6126914;23;20049;-75
2023/01/03 01:16:30;;;;;;;15.45;2.20;;;;;;;;;;6126777;23;19905;-76
2023/01/03 01:18:58;;;;;;;15.82;2.28;;;;;;;;;;6128240;23;20432;-77
2023/01/03 01:21:26;;;;;;;15.38;2.75;;;;;;;;;;6127909;23;20006;-77
2023/01/03 01:23:52;;;;;;;16.13;2.42;;;;;;;;;;6127771;23;20056;-76
2023/01/03 01:26:20;;;;;;;17.20;2.53;;;;;;;;;;6128099;23;20026;-77
2023/01/03 01:28:46;;;;;;;16.55;2.85;;;;;;;;;;6126299;23;20056;-76
2023/01/03 01:31:14;;;;;;;15.25;3.10;;;;;;;;;;6127869;23;20488;-76
2023/01/03 01:33:40;;;;;;;18.00;3.00;;;;;;;;;;6127838;23;20010;-77
2023/01/03 01:36:07;;;;;;;15.68;2.38;;;;;;;;;;6128019;23;20010;-76
2023/01/03 01:38:33;;;;;;;14.60;2.72;;;;;;;;;;6127774;23;20074;-77
2023/01/03 01:41:00;;;;;;;16.27;2.63;;;;;;;;;;6127828;23;20013;-75
2023/01/03 01:46:32;;;;;;;12.23;2.17;;;;;;;;;;6127847;23;20076;-77
2023/01/03 01:48:59;;;;;;;16.15;3.00;;;;;;;;;;6127805;23;20021;-75
2023/01/03 01:51:26;;;;;;;11.27;2.35;;;;;;;;;;6127639;23;20008;-76
2023/01/03 01:53:53;;;;;;;18.17;2.42;;;;;;;;;;6127556;23;20035;-75
2023/01/03 01:56:30;;;;;;;17.02;2.65;;;;;;;;;;6127622;23;20012;-76
2023/01/03 01:58:57;;;;;;;15.75;2.50;;;;;;;;;;6127355;23;20039;-76
2023/01/03 02:01:23;;;;;;;18.08;2.90;;;;;;;;;;6127014;23;20036;-76
2023/01/03 02:03:55;;;;;;;11.98;2.40;;;;;;;;;;6125892;23;20010;-75
2023/01/03 02:06:21;;;;;;;13.45;2.85;;;;;;;;;;6127722;23;20036;-75
2023/01/03 02:08:48;;;;;;;13.20;2.35;;;;;;;;;;6127650;23;20065;-75
2023/01/03 02:11:14;;;;;;;;;;;;;;;;;;6128664;23;19998;-76
2023/01/03 02:13:56;;;;;;;11.80;2.20;;;;;;;;;;6127416;23;19912;-76
2023/01/03 02:16:29;;;;;;;18.50;2.90;;;;;;;;;;6127972;23;20012;-75
2023/01/03 02:19:01;;;;;;;18.77;2.47;;;;;;;;;;6127599;23;20378;-77
2023/01/03 02:22:02;;;;;;;12.65;2.33;;;;;;;;;;6127504;23;20314;-76
2023/01/03 02:24:34;;;;;;;18.58;3.22;;;;;;;;;;6009804;23;20188;-75
2023/01/03 02:27:18;;;;;;;16.35;2.50;;;;;;;;;;6108047;23;20010;-75
2023/01/03 02:29:44;;;;;;;14.63;2.22;;;;;;;;;;6127357;23;20010;-76
2023/01/03 02:32:20;;;;;;;13.88;2.53;;;;;;;;;;6127530;23;20179;-76
2023/01/03 02:34:49;;;;;;;10.95;2.47;;;;;;;;;;6127457;23;20009;-76
2023/01/03 02:37:24;;;;;;;17.00;2.70;;;;;;;;;;6127353;23;20029;-77
2023/01/03 02:40:14;;;;;;;16.08;2.35;;;;;;;;;;6127302;23;20009;-76
2023/01/03 02:43:04;;;;;;;17.70;2.80;;;;;;;;;;6127251;23;20001;-76
2023/01/03 02:45:34;;;;;;;18.45;2.55;;;;;;;;;;6111459;23;20045;-76
2023/01/03 02:48:02;;;;;;;14.55;2.67;;;;;;;;;;6125508;23;20002;-76
2023/01/03 02:50:31;;;;;;;17.92;2.53;;;;;;;;;;6127068;23;19998;-76
2023/01/03 02:53:01;;;;;;;14.45;2.65;;;;;;;;;;6127003;23;20490;-76
2023/01/03 02:55:29;;;;;;;14.77;2.83;;;;;;;;;;6127052;23;20088;-76
2023/01/03 02:57:55;;;;;;;17.75;2.83;;;;;;;;;;6126807;23;20333;-75
2023/01/03 03:00:23;;;;;;;18.42;3.22;;;;;;;;;;6127118;23;20133;-76
2023/01/03 03:02:51;;;;;;;17.77;2.45;;;;;;;;;;6126873;23;20012;-76
2023/01/03 03:05:28;;;;;;;20.13;2.85;;;;;;;;;;6126970;23;20002;-76
2023/01/03 03:07:54;;;;;;;16.23;3.35;;;;;;;;;;6126945;23;20002;-76
2023/01/03 03:13:12;;;;;;;25.40;6.18;;;;;;;;;;6127043;23;20021;-76
2023/01/03 03:15:40;;;;;;;24.63;6.22;;;;;;;;;;6126973;23;20002;-76
2023/01/03 03:18:09;;;;;;;20.67;6.88;;;;;;;;;;6126836;23;20006;-77
2023/01/03 03:26:14;;;;;;;27.63;9.13;;;;;;;;;;6126539;23;20017;-75
2023/01/03 03:28:43;;;;;;;24.77;8.50;;;;;;;;;;6126776;23;20002;-77
2023/01/03 03:31:16;;;;;;;14.68;3.95;;;;;;;;;;6126687;23;20073;-75
2023/01/03 03:33:45;;;;;;;22.08;5.05;;;;;;;;;;6126637;23;20006;-76
2023/01/03 03:36:30;;;;;;;19.58;3.38;;;;;;;;;;6126757;23;20053;-76
2023/01/03 03:38:57;;;;;;;18.27;2.90;;;;;;;;;;6126450;23;20436;-75
2023/01/03 03:47:38;;;;;;;13.70;2.60;;;;;;;;;;6126350;23;20052;-75
2023/01/03 03:50:13;;;;;;;22.17;2.88;;;;;;;;;;6126606;23;19998;-76
2023/01/03 03:52:42;;;;;;;19.83;2.67;;;;;;;;;;6126613;23;20077;-76
2023/01/03 03:55:37;;;;;;;15.68;2.50;;;;;;;;;;6126548;23;20081;-77
2023/01/03 03:58:07;;;;;;;18.92;2.92;;;;;;;;;;6101551;23;20010;-76
2023/01/03 04:00:37;;;;;;;15.35;2.50;;;;;;;;;;6126565;23;20014;-77
2023/01/03 04:03:04;;;;;;;20.55;2.83;;;;;;;;;;6126437;23;20029;-77
2023/01/03 04:05:32;;;;;;;13.10;2.67;;;;;;;;;;6126682;23;20065;-76
2023/01/03 04:07:58;;;;;;;12.98;2.60;;;;;;;;;;6126436;23;20005;-77
2023/01/03 04:10:24;;;;;;;16.42;2.20;;;;;;;;;;6124909;23;20340;-76
2023/01/03 04:12:50;;;;;;;;;;;;;;;;;;6126860;23;20417;-75
2023/01/03 04:15:16;;;;;;;17.98;2.25;;;;;;;;;;6126660;23;19908;-76
2023/01/03 04:17:42;;;;;;;;;;;;;;;;;;6126866;23;20006;-76
2023/01/03 04:20:08;;;;;;;18.63;2.50;;;;;;;;;;6126436;23;19984;-76
2023/01/03 04:22:35;;;;;;;20.52;2.60;;;;;;;;;;6126480;23;20096;-77
2023/01/03 04:25:01;;;;;;;19.27;2.58;;;;;;;;;;6126312;23;20389;-76
2023/01/03 04:27:27;;;;;;;19.48;3.03;;;;;;;;;;6126351;23;20057;-76
2023/01/03 04:29:53;;;;;;;;;;;;;;;;;;6126839;23;20437;-77
2023/01/03 04:32:19;;;;;;;22.20;2.63;;;;;;;;;;6126834;23;19907;-76
2023/01/03 04:34:45;;;;;;;14.02;2.47;;;;;;;;;;6126356;23;20006;-76
2023/01/03 04:37:11;;;;;;;;;;;;;;;;;;6126775;23;20006;-76
2023/01/03 04:39:37;;;;;;;16.13;2.63;;;;;;;;;;6126333;23;19976;-75
2023/01/03 04:44:00;;;;;;;11.68;2.15;;;;;;;;;;6124695;23;20412;-76
2023/01/03 04:44:49;;;;;;;14.40;2.83;;;;;;;;;;6125840;23;20065;-77
2023/01/03 04:47:15;;;;;;;;;;;;;;;;;;6126737;23;20429;-77
2023/01/03 04:49:45;;;;;;;15.73;2.58;;;;;;;;;;6126268;23;19959;-77
2023/01/03 04:52:11;;;;;;;15.05;2.75;;;;;;;;;;6127324;23;20017;-75
2023/01/03 04:54:38;;;;;;;16.33;2.50;;;;;;;;;;6128071;23;20052;-77
2023/01/03 04:57:04;;;;;;;14.82;1.98;;;;;;;;;;6128560;23;20560;-76
2023/01/03 04:59:30;;;;;;;25.60;3.10;;;;;;;;;;6107206;23;20022;-76
2023/01/03 05:01:56;;;;;;;;;;;;;;;;;;6070561;23;20011;-75
2023/01/03 05:04:22;;;;;;;13.00;2.25;;;;;;;;;;6069970;23;19905;-77
2023/01/03 05:06:48;;;;;;;16.90;2.40;;;;;;;;;;6070541;23;20070;-76
2023/01/03 05:09:14;;;;;;;15.38;2.83;;;;;;;;;;6070456;23;19999;-77
2023/01/03 05:11:40;;;;;;;;;;;;;;;;;;6070841;23;20477;-76
2023/01/03 05:14:06;;;;;;;15.40;2.17;;;;;;;;;;6069995;23;19905;-76
2023/01/03 05:16:32;;;;;;;15.00;2.60;;;;;;;;;;6069900;23;20426;-76
2023/01/03 05:18:58;;;;;;;14.13;2.42;;;;;;;;;;6069949;23;20007;-77
2023/01/03 05:26:56;;;;;;;17.80;2.40;;;;;;;;;;6069557;23;20465;-75
2023/01/03 05:29:22;;;;;;;13.93;2.45;;;;;;;;;;6069832;23;20047;-77
2023/01/03 05:31:48;;;;;;;;;;;;;;;;;;6070288;23;20002;-76
2023/01/03 05:34:14;;;;;;;17.55;2.83;;;;;;;;;;6069828;23;20347;-76
2023/01/03 05:36:40;;;;;;;;;;;;;;;;;;6070248;23;20070;-75
2023/01/03 05:39:07;;;;;;;16.60;2.20;;;;;;;;;;6070186;23;20324;-75
2023/01/03 05:44:17;;;;;;;14.37;2.13;;;;;;;;;;6069357;23;20021;-77
2023/01/03 05:46:43;;;;;;;;;;;;;;;;;;6070692;23;20334;-75
2023/01/03 05:49:10;;;;;;;14.65;2.50;;;;;;;;;;6070056;23;19902;-75
2023/01/03 05:51:35;;;;;;;;;;;;;;;;;;6070109;23;19999;-77
2023/01/03 05:54:02;;;;;;;17.35;2.67;;;;;;;;;;6069629;23;19905;-76
2023/01/03 05:56:29;;;;;;;17.17;2.13;;;;;;;;;;6069617;23;20341;-77
2023/01/03 05:58:55;;;;;;;20.60;2.35;;;;;;;;;;6083419;23;20010;-76
2023/01/03 06:01:25;;;;;;;14.93;2.47;;;;;;;;;;6128064;23;20026;-76
2023/01/03 06:03:51;;;;;;;15.48;2.30;;;;;;;;;;6125607;23;20448;-77
2023/01/03 06:06:18;;;;;;;15.40;2.72;;;;;;;;;;6127467;23;19998;-76
2023/01/03 06:08:44;;;;;;;21.55;3.67;;;;;;;;;;6127490;23;20002;-76
2023/01/03 06:11:10;;;;;;;;;;;;;;;;;;6127868;23;20495;-76
2023/01/03 06:13:36;;;;;;;17.80;2.50;;;;;;;;;;6127433;23;19901;-75
2023/01/03 06:18:48;;;;;;;17.27;2.08;;;;;;;;;;6127143;23;20364;-76
2023/01/03 06:21:14;;;;;;;;;;;;;;;;;;6126238;23;20010;-76
2023/01/03 06:23:40;;;;;;;15.00;2.70;;;;;;;;;;6127634;23;20331;-75
2023/01/03 06:26:06;;;;;;;16.13;2.85;;;;;;;;;;6127386;23;20349;-76
2023/01/03 06:28:32;;;;;;;15.75;2.40;;;;;;;;;;6127359;23;20077;-75
2023/01/03 06:30:58;;;;;;;16.75;2.10;;;;;;;;;;6127333;23;20485;-77
2023/01/03 06:33:24;;;;;;;16.60;2.72;;;;;;;;;;6127322;23;20069;-76
2023/01/03 06:35:50;;;;;;;20.42;2.63;;;;;;;;;;6127597;23;20006;-77
2023/01/03 06:38:16;;;;;;;;;;;;;;;;;;6126128;23;20009;-77
2023/01/03 06:40:49;;;;;;;19.25;2.63;;;;;;;;;;6127198;23;19932;-76
2023/01/03 06:43:15;;;;;;;19.48;2.75;;;;;;;;;;6127082;23;20337;-76
2023/01/03 06:54:00;;;;;;;17.40;2.47;;;;;;;;;;6126909;23;20016;-76
2023/01/03 06:56:27;;;;;;;14.02;2.30;;;;;;;;;;6127056;23;20400;-75
2023/01/03 06:58:53;;;;;;;;;;;;;;;;;;6126992;23;20081;-77
2023/01/03 07:01:19;;;;;;;20.73;2.80;;;;;;;;;;6126866;23;19976;-75
2023/01/03 07:03:45;;;;;;;18.42;2.88;;;;;;;;;;6126717;23;20400;-75
2023/01/03 07:06:11;;;;;;;19.00;2.38;;;;;;;;;;6127212;23;20022;-75
2023/01/03 07:08:37;;;;;;;13.45;2.85;;;;;;;;;;6126917;23;20508;-77
2023/01/03 07:11:03;;;;;;;15.13;2.58;;;;;;;;;;6126921;23;20025;-75
2023/01/03 07:16:15;;;;;;;18.57;2.83;;;;;;;;;;6126599;23;20021;-76
2023/01/03 07:18:41;;;;;;;25.33;4.93;;;;;;;;;;6126827;23;20100;-76
2023/01/03 07:21:07;;;;;;;15.90;2.63;;;;;;;;;;6127053;23;20010;-77
2023/01/03 07:23:33;;;;;;;;;;;;;;;;;;6127196;23;20029;-76
2023/01/03 07:25:59;;;;;;;19.20;2.83;;;;;;;;;;6126674;23;20225;-76
2023/01/03 07:28:25;;;;;;;;;;;;;;;;;;6127273;23;19998;-77
2023/01/03 07:30:51;;;;;;;19.88;2.70;;;;;;;;;;6100711;23;20366;-77
2023/01/03 07:33:17;;;;;;;16.45;2.60;;;;;;;;;;6126829;23;20006;-76
2023/01/03 07:35:44;;;;;;;21.63;2.60;;;;;;;;;;6125150;23;20010;-76
2023/01/03 07:38:11;;;;;;;17.55;2.40;;;;;;;;;;6126676;23;20002;-76
2023/01/03 07:40:37;;;;;;;20.73;2.70;;;;;;;;;;6126640;23;20008;-75
2023/01/03 07:45:48;;;;;;;19.40;2.63;;;;;;;;;;6126914;23;20016;-76
2023/01/03 07:48:14;;;;;;;;;;;;;;;;;;6127414;23;19998;-77
2023/01/03 07:50:40;;;;;;;18.73;2.60;;;;;;;;;;6100498;23;19975;-77
2023/01/03 07:53:07;;;;;;;17.23;2.60;;;;;;;;;;6126508;23;20006;-76
2023/01/03 07:55:33;;;;;;;21.75;2.80;;;;;;;;;;6125006;23;20318;-75
2023/01/03 07:58:00;;;;;;;22.38;2.80;;;;;;;;;;6126553;23;20009;-75
2023/01/03 08:00:26;;;;;;;14.13;2.47;;;;;;;;;;6124506;23;20085;-76
2023/01/03 08:02:53;;;;;;;;;;;;;;;;;;6126812;23;20006;-76
2023/01/03 08:05:19;;;;;;;17.05;2.65;;;;;;;;;;6126559;23;19901;-76
2023/01/03 08:07:46;;;;;;;19.73;2.78;;;;;;;;;;6126056;23;20077;-77
2023/01/03 08:15:44;;;;;;;17.97;2.77;;;;;;;;;;6126169;23;20471;-77
2023/01/03 08:18:10;;;;;;;18.48;2.70;;;;;;;;;;6126108;23;20013;-77
2023/01/03 08:20:38;;;;;;;14.63;2.28;;;;;;;;;;6124703;23;20006;-77
2023/01/03 08:23:06;;;;;;;13.48;2.33;;;;;;;;;;6126017;23;20021;-77
2023/01/03 08:25:32;;;;;;;20.00;3.75;;;;;;;;;;6125079;23;20069;-76
2023/01/03 08:27:59;;;;;;;19.85;2.67;;;;;;;;;;6126388;23;19998;-76
2023/01/03 08:30:25;;;;;;;20.02;2.65;;;;;;;;;;6126571;23;20053;-77
2023/01/03 08:32:51;;;;;;;;;;;;;;;;;;6126781;23;20010;-77
2023/01/03 08:35:17;;;;;;;16.63;2.28;;;;;;;;;;6126539;23;19908;-76
2023/01/03 08:37:44;;;;;;;13.80;2.65;;;;;;;;;;6126260;23;20006;-76
2023/01/03 08:40:11;;;;;;;16.80;2.50;;;;;;;;;;6124773;23;20006;-76
2023/01/03 08:42:37;;;;;;;13.02;2.53;;;;;;;;;;6126409;23;20025;-76
2023/01/03 08:45:06;;;;;;;16.85;2.40;;;;;;;;;;6124710;23;20013;-76
2023/01/03 08:47:32;;;;;;;15.68;3.03;;;;;;;;;;6126357;23;20036;-78
2023/01/03 08:49:59;;;;;;;20.42;2.72;;;;;;;;;;6126282;23;20468;-76
2023/01/03 08:52:25;;;;;;;18.30;2.83;;;;;;;;;;6126151;23;20429;-77
2023/01/03 08:54:51;;;;;;;15.27;2.33;;;;;;;;;;6126270;23;20006;-77
2023/01/03 08:57:17;;;;;;;;;;;;;;;;;;6126658;23;20002;-75
2023/01/03 08:59:43;;;;;;;16.05;2.63;;;;;;;;;;6126125;23;19967;-76
2023/01/03 09:02:09;;;;;;;;;;;;;;;;;;6125081;23;20008;-76
2023/01/03 09:04:35;;;;;;;16.45;2.92;;;;;;;;;;6126118;23;19936;-76
2023/01/03 09:07:01;;;;;;;;;;;;;;;;;;6125108;23;20057;-76
2023/01/03 09:09:27;;;;;;;16.13;2.60;;;;;;;;;;6125991;23;19908;-78
2023/01/03 09:11:53;;;;;;;12.05;2.60;;;;;;;;;;6126111;23;20425;-77
2023/01/03 09:14:19;;;;;;;14.80;2.45;;;;;;;;;;6126056;23;20010;-77
2023/01/03 09:16:45;;;;;;;12.07;2.40;;;;;;;;;;6125882;23;20314;-77
2023/01/03 09:19:11;;;;;;;17.42;2.90;;;;;;;;;;6126350;23;20006;-77
2023/01/03 09:21:37;;;;;;;14.35;2.88;;;;;;;;;;6126073;23;20081;-77
2023/01/03 09:24:03;;;;;;;13.63;2.50;;;;;;;;;;6126058;23;20002;-77
2023/01/03 09:26:30;;;;;;;18.58;3.22;;;;;;;;;;6126347;23;19998;-76
2023/01/03 09:28:56;;;;;;;14.15;2.78;;;;;;;;;;6126162;23;20002;-76
2023/01/03 09:31:22;;;;;;;20.55;3.28;;;;;;;;;;6126021;23;20451;-75
2023/01/03 09:33:48;;;;;;;;;;;;;;;;;;6126486;23;20311;-76
2023/01/03 09:36:14;;;;;;;14.60;3.03;;;;;;;;;;6126700;23;19948;-76
2023/01/03 09:38:40;;;;;;;16.00;2.75;;;;;;;;;;6127408;23;20006;-76
2023/01/03 09:41:08;;;;;;;15.27;2.95;;;;;;;;;;6127781;23;20345;-77
2023/01/03 09:43:40;;;;;;;17.55;2.75;;;;;;;;;;6127823;23;20061;-76
2023/01/03 09:46:08;;;;;;;16.30;2.97;;;;;;;;;;6127724;23;19998;-76
2023/01/03 09:48:36;;;;;;;15.30;2.92;;;;;;;;;;6126148;23;20002;-76
2023/01/03 09:51:03;;;;;;;17.38;2.33;;;;;;;;;;6128055;23;20382;-77
2023/01/03 10:04:51;;;;;;;12.07;2.63;;;;;;;;;;6127478;23;20049;-77
2023/01/03 10:07:20;;;;;;;17.15;2.78;;;;;;;;;;6127539;23;20002;-77
2023/01/03 10:09:49;;;;;;;15.43;2.55;;;;;;;;;;6128122;23;20081;-77
2023/01/03 10:12:21;;;;;;;14.02;3.03;;;;;;;;;;6127466;23;20074;-77
2023/01/03 10:14:56;;;;;;;13.75;2.88;;;;;;;;;;6127435;23;19998;-77
2023/01/03 10:17:28;;;;;;;16.45;3.17;;;;;;;;;;6127509;23;20005;-76
2023/01/03 10:20:03;;;;;;;12.40;2.83;;;;;;;;;;6127503;23;19998;-76
2023/01/03 10:22:30;;;;;;;17.25;3.03;;;;;;;;;;6128143;23;19998;-77
2023/01/03 10:24:59;;;;;;;13.43;2.97;;;;;;;;;;6127624;23;20497;-77
2023/01/03 10:27:27;;;;;;;17.65;2.90;;;;;;;;;;6127660;23;20002;-77
2023/01/03 10:29:59;;;;;;;20.50;3.30;;;;;;;;;;6125744;23;20405;-78
2023/01/03 10:32:25;;;;;;;15.68;2.63;;;;;;;;;;6127224;23;20002;-77
2023/01/03 10:35:10;;;;;;;15.98;2.97;;;;;;;;;;6125665;23;20060;-77
2023/01/03 10:37:39;;;;;;;14.43;2.72;;;;;;;;;;6127272;23;20001;-76
2023/01/03 10:40:05;;;;;;;14.93;2.67;;;;;;;;;;6125684;23;20002;-77
2023/01/03 10:42:33;;;;;;;23.02;3.35;;;;;;;;;;6127110;23;20006;-76
2023/01/03 10:45:00;;;;;;;13.05;3.00;;;;;;;;;;6127162;23;20436;-76
2023/01/03 10:47:27;;;;;;;14.15;2.78;;;;;;;;;;6127093;23;19998;-76
2023/01/03 10:49:59;;;;;;;14.05;2.40;;;;;;;;;;6126949;23;20429;-77
2023/01/03 10:52:30;;;;;;;14.02;2.63;;;;;;;;;;6126755;23;20464;-77
2023/01/03 10:54:59;;;;;;;16.88;2.75;;;;;;;;;;6127340;23;20076;-78
2023/01/03 10:57:47;;;;;;;18.48;3.30;;;;;;;;;;6127022;23;20009;-77
2023/01/03 11:00:31;;;;;;;15.85;2.75;;;;;;;;;;6126601;23;20016;-77
2023/01/03 11:03:11;;;;;;;15.60;2.73;;;;;;;;;;6126937;23;20433;-76
2023/01/03 11:05:39;;;;;;;15.05;2.88;;;;;;;;;;6127331;23;20005;-76
2023/01/03 11:08:11;;;;;;;14.68;2.60;;;;;;;;;;6126951;23;20425;-76
2023/01/03 11:10:39;;;;;;;14.57;2.80;;;;;;;;;;6126924;23;20002;-77
2023/01/03 11:13:24;;;;;;;13.23;2.30;;;;;;;;;;6126890;23;20365;-76
2023/01/03 11:15:58;;;;;;;17.20;2.58;;;;;;;;;;6126868;23;20424;-75
2023/01/03 11:18:27;;;;;;;14.38;2.45;;;;;;;;;;6126973;23;20012;-76
2023/01/03 11:21:08;;;;;;;12.52;2.50;;;;;;;;;;6126861;23;20006;-77
2023/01/03 11:23:37;;;;;;;14.75;2.13;;;;;;;;;;6126634;23;20002;-77
2023/01/03 11:26:12;;;;;;;15.05;2.00;;;;;;;;;;6127108;23;20488;-75
2023/01/03 11:28:38;;;;;;;14.55;2.30;;;;;;;;;;6126738;23;19998;-75
2023/01/03 11:31:08;;;;;;;11.05;2.17;;;;;;;;;;6126691;23;19998;-76
2023/01/03 11:33:34;;;;;;;12.05;2.55;;;;;;;;;;6127402;23;20061;-76
2023/01/03 11:36:00;;;;;;;;;;;;;;;;;;6127176;23;20002;-77
2023/01/03 11:38:32;;;;;;;16.77;2.15;;;;;;;;;;6126601;23;19901;-77
2023/01/03 11:41:05;;;;;;;16.50;2.50;;;;;;;;;;6126596;23;20005;-77
2023/01/03 11:43:49;;;;;;;13.02;2.40;;;;;;;;;;6126688;23;20006;-76
2023/01/03 11:46:22;;;;;;;14.57;2.08;;;;;;;;;;6126835;23;20377;-77
2023/01/03 11:49:27;;;;;;;12.40;2.45;;;;;;;;;;6126549;23;20002;-75
2023/01/03 11:51:53;;;;;;;;;;;;;;;;;;6009567;23;20392;-77
2023/01/03 11:54:19;;;;;;;16.52;2.60;;;;;;;;;;6009597;23;19906;-76
2023/01/03 11:56:46;;;;;;;15.25;2.40;;;;;;;;;;6064595;23;20008;-75
2023/01/03 11:59:12;;;;;;;14.52;2.40;;;;;;;;;;6123578;23;20014;-77
2023/01/03 12:01:40;;;;;;;;;;;;;;;;;;6121384;23;20545;-76
2023/01/03 12:04:12;;;;;;;13.10;2.58;;;;;;;;;;6119288;23;19936;-76
2023/01/03 12:06:54;;;;;;;14.32;1.90;;;;;;;;;;6125719;23;20085;-76
2023/01/03 12:09:32;;;;;;;18.13;2.80;;;;;;;;;;6126503;23;20017;-76
2023/01/03 12:12:24;;;;;;;19.58;3.17;;;;;;;;;;6126372;23;20006;-75
2023/01/03 12:15:11;;;;;;;13.70;1.92;;;;;;;;;;6081918;23;20071;-75
2023/01/03 12:17:46;;;;;;;12.68;2.30;;;;;;;;;;6126369;23;20069;-75
2023/01/03 12:20:39;;;;;;;10.75;1.98;;;;;;;;;;6126144;23;20001;-76
2023/01/03 12:23:14;;;;;;;18.35;2.70;;;;;;;;;;6120952;23;20057;-77
2023/01/03 12:25:46;;;;;;;12.43;2.40;;;;;;;;;;6126467;23;20073;-76
2023/01/03 12:28:16;;;;;;;17.70;2.50;;;;;;;;;;6126618;23;20010;-76
2023/01/03 12:30:57;;;;;;;13.57;2.47;;;;;;;;;;6126486;23;20006;-76
2023/01/03 12:33:30;;;;;;;14.48;2.45;;;;;;;;;;6126504;23;20002;-75
2023/01/03 12:36:07;;;;;;;13.48;2.28;;;;;;;;;;6126853;23;20069;-77
2023/01/03 12:38:38;;;;;;;11.45;2.08;;;;;;;;;;6126491;23;20029;-75
2023/01/03 12:41:04;;;;;;;14.02;2.25;;;;;;;;;;6126244;23;20006;-76
2023/01/03 12:43:30;;;;;;;;;;;;;;;;;;6126695;23;20038;-76
2023/01/03 12:46:05;;;;;;;14.30;2.20;;;;;;;;;;6126231;23;19956;-76
2023/01/03 12:48:57;;;;;;;16.50;2.38;;;;;;;;;;6124423;23;20010;-76
2023/01/03 12:51:24;;;;;;;16.08;2.30;;;;;;;;;;6126385;23;20009;-76
2023/01/03 12:53:56;;;;;;;12.63;2.55;;;;;;;;;;6126232;23;20013;-75
2023/01/03 12:56:39;;;;;;;17.33;2.47;;;;;;;;;;6126644;23;20444;-75
2023/01/03 12:59:05;;;;;;;8.60;1.85;;;;;;;;;;6126122;23;20089;-77
2023/01/03 13:01:47;;;;;;;14.27;2.75;;;;;;;;;;6126239;23;20140;-75
2023/01/03 13:04:13;;;;;;;15.95;2.65;;;;;;;;;;6126589;23;20049;-76
2023/01/03 13:06:39;;;;;;;;;;;;;;;;;;6126735;23;20332;-75
2023/01/03 13:09:13;;;;;;;17.67;2.88;;;;;;;;;;6126247;23;19901;-75
2023/01/03 13:11:44;;;;;;;16.05;2.95;;;;;;;;;;6126917;23;20002;-76
2023/01/03 13:14:18;;;;;;;13.88;2.40;;;;;;;;;;6128021;23;20436;-76
2023/01/03 13:16:55;;;;;;;17.38;2.67;;;;;;;;;;6128212;23;20053;-76
2023/01/03 13:19:21;;;;;;;16.60;2.33;;;;;;;;;;6128272;23;20013;-75
2023/01/03 13:21:53;;;;;;;13.85;2.38;;;;;;;;;;6128178;23;20002;-76
2023/01/03 13:24:38;;;;;;;20.10;2.80;;;;;;;;;;6127913;23;20002;-75
2023/01/03 13:27:19;;;;;;;14.30;2.30;;;;;;;;;;6127932;23;20002;-76
2023/01/03 13:29:45;;;;;;;12.18;2.45;;;;;;;;;;6126315;23;20006;-76
2023/01/03 13:32:11;;;;;;;;;;;;;;;;;;6128697;23;19998;-75
2023/01/03 13:34:37;;;;;;;11.98;2.15;;;;;;;;;;6128354;23;19901;-76
2023/01/03 13:37:03;;;;;;;;;;;;;;;;;;6128350;23;20056;-75
2023/01/03 13:40:04;;;;;;;15.77;2.58;;;;;;;;;;6127795;23;19901;-75
2023/01/03 13:42:35;;;;;;;14.35;2.60;;;;;;;;;;6010222;23;20011;-76
2023/01/03 13:45:10;;;;;;;19.48;2.35;;;;;;;;;;6108181;23;20037;-76
2023/01/03 13:47:40;;;;;;;14.60;2.38;;;;;;;;;;6128207;23;20002;-76
2023/01/03 13:50:18;;;;;;;16.90;2.50;;;;;;;;;;6126186;23;20346;-76
2023/01/03 13:53:04;;;;;;;16.25;2.35;;;;;;;;;;6127710;23;20085;-75
2023/01/03 13:55:38;;;;;;;15.90;2.20;;;;;;;;;;6127737;23;20002;-76
2023/01/03 13:58:27;;;;;;;21.25;2.95;;;;;;;;;;6127740;23;20081;-76
2023/01/03 14:00:55;;;;;;;17.52;2.75;;;;;;;;;;6127640;23;20038;-77
2023/01/03 14:03:30;;;;;;;16.08;2.65;;;;;;;;;;6127935;23;20381;-76
2023/01/03 14:06:05;;;;;;;11.88;2.00;;;;;;;;;;6127536;23;20002;-75
2023/01/03 14:08:46;;;;;;;19.90;2.25;;;;;;;;;;6127739;23;20006;-76
2023/01/03 14:11:30;;;;;;;12.35;2.63;;;;;;;;;;6125548;23;20065;-76
2023/01/03 14:14:04;;;;;;;15.55;2.80;;;;;;;;;;6127482;23;20010;-77
2023/01/03 14:16:41;;;;;;;13.75;2.55;;;;;;;;;;6127537;23;20002;-75
2023/01/03 14:19:22;;;;;;;18.80;2.30;;;;;;;;;;6127409;23;20434;-76
2023/01/03 14:21:52;;;;;;;17.17;3.08;;;;;;;;;;6127508;23;20021;-76
2023/01/03 14:24:23;;;;;;;18.95;2.83;;;;;;;;;;6127184;23;20002;-77
2023/01/03 14:26:49;;;;;;;13.23;2.40;;;;;;;;;;6127750;23;19998;-75
2023/01/03 14:29:17;;;;;;;15.40;2.50;;;;;;;;;;6127295;23;20314;-75
2023/01/03 14:31:46;;;;;;;17.67;2.33;;;;;;;;;;6127326;23;20002;-76
2023/01/03 14:34:18;;;;;;;17.70;2.72;;;;;;;;;;6127214;23;20077;-76
2023/01/03 14:36:45;;;;;;;19.33;3.08;;;;;;;;;;6127517;23;20006;-75
2023/01/03 14:39:20;;;;;;;14.15;2.53;;;;;;;;;;6127677;23;20013;-75
2023/01/03 14:41:46;;;;;;;15.27;2.40;;;;;;;;;;6125400;23;20010;-75
2023/01/03 14:44:12;;;;;;;;;;;;;;;;;;6127725;23;20002;-77
2023/01/03 14:46:41;;;;;;;16.77;2.65;;;;;;;;;;6127212;23;19907;-77
2023/01/03 14:49:18;;;;;;;16.23;2.20;;;;;;;;;;6127228;23;20053;-76
2023/01/03 14:51:44;;;;;;;18.67;2.85;;;;;;;;;;6127611;23;20009;-75
2023/01/03 14:54:13;;;;;;;14.00;2.67;;;;;;;;;;6127079;23;20460;-75
2023/01/03 14:56:39;;;;;;;15.85;2.47;;;;;;;;;;6125552;23;20010;-76
2023/01/03 14:59:05;;;;;;;;;;;;;;;;;;6127289;23;20021;-76
2023/01/03 15:01:31;;;;;;;14.50;2.40;;;;;;;;;;6127069;23;19904;-76
2023/01/03 15:03:57;;;;;;;;;;;;;;;;;;6127465;23;20001;-75
2023/01/03 15:06:30;;;;;;;14.30;2.47;;;;;;;;;;6127282;23;19916;-76
2023/01/03 15:08:58;;;;;;;17.23;2.85;;;;;;;;;;6126962;23;19998;-76
2023/01/03 15:11:29;;;;;;;21.77;3.17;;;;;;;;;;6125335;23;20430;-75
2023/01/03 15:13:58;;;;;;;15.00;2.58;;;;;;;;;;6127110;23;20012;-76
2023/01/03 15:16:39;;;;;;;19.83;3.08;;;;;;;;;;6126932;23;20440;-76
2023/01/03 15:19:12;;;;;;;12.02;2.13;;;;;;;;;;6127356;23;20081;-75
2023/01/03 15:21:39;;;;;;;15.45;2.60;;;;;;;;;;6127213;23;20029;-76
2023/01/03 15:24:10;;;;;;;13.80;3.00;;;;;;;;;;6126801;23;20337;-76
2023/01/03 15:26:38;;;;;;;13.52;2.63;;;;;;;;;;6126867;23;20002;-75
2023/01/03 15:29:13;;;;;;;12.82;2.25;;;;;;;;;;6127081;23;20002;-76
2023/01/03 15:31:46;;;;;;;12.57;2.28;;;;;;;;;;6126955;23;20002;-76
2023/01/03 15:34:17;;;;;;;15.63;2.90;;;;;;;;;;6126684;23;20006;-75
2023/01/03 15:36:57;;;;;;;17.30;2.72;;;;;;;;;;6126971;23;20037;-76
2023/01/03 15:39:24;;;;;;;20.48;3.10;;;;;;;;;;6126710;23;20028;-75
2023/01/03 15:44:41;;;;;;;12.65;2.25;;;;;;;;;;6126327;23;20089;-75
2023/01/03 15:47:06;;;;;;;;;;;;;;;;;;6127093;23;20044;-76
2023/01/03 15:49:37;;;;;;;16.08;2.45;;;;;;;;;;6126690;23;19901;-76
2023/01/03 15:52:04;;;;;;;16.08;2.75;;;;;;;;;;6126645;23;20072;-75
2023/01/03 15:54:29;;;;;;;;;;;;;;;;;;6126857;23;20009;-75
2023/01/03 15:57:02;;;;;;;23.17;3.17;;;;;;;;;;6126477;23;20240;-75
2023/01/03 15:59:29;;;;;;;20.65;3.33;;;;;;;;;;6106565;23;20444;-76